If you wish to contribute or participate in the discussions about articles you are invited to join SKYbrary as a registered user

 Actions

Marshall Don Hunter Sr Airport

From SKYbrary Wiki

PADM
Airport
ICAO: PADM – IATA: MLL
Summary
Name Marshall Don Hunter Sr Airport
Region North America
Territory Alaska US.gif
Location , Alaska
Serving Marshall
Elevation 31.394 m
103 ft
103 ft31.394 m
Type medium airport
Coordinates 61° 51' 52.71" N, 162° 1' 34.00" W
Runways
Designator Length Width Surface ROPS
7/25 976 m3,202.1 ft
30 m98.425 ft
GVL /


METAR
Observation PADM 201602Z AUTO 34003KT 10SM CLR M02/M03 A2955 RMK AO2 SLP012 T10221028 FZRANO
Station MARSHALL
Date/Time 20 September 2019 16:02:00
Wind direction 340°
Wind speed 03 kts
Lowest cloud amount n/a
Temperature
Dew point
Humidity 95%
QNH hPa
Weather condition n/a